createdAt,value
2023-05-14T00:03:22.878Z,7.13
2023-05-14T00:07:30.736Z,6.95
2023-05-14T00:11:33.919Z,6.93
2023-05-14T00:15:38.431Z,6.70
2023-05-14T00:19:42.885Z,7.28
2023-05-14T00:23:45.892Z,6.57
2023-05-14T00:27:48.909Z,6.82
2023-05-14T00:31:53.399Z,6.65
2023-05-14T00:35:56.588Z,6.95
2023-05-14T00:39:59.678Z,6.22
2023-05-14T00:44:02.829Z,6.57
2023-05-14T00:48:16.899Z,6.57
2023-05-14T00:52:20.375Z,7.00
2023-05-14T00:56:24.903Z,6.43
2023-05-14T01:00:27.934Z,7.03
2023-05-14T01:04:32.393Z,7.13
2023-05-14T01:08:45.191Z,7.10
2023-05-14T01:12:53.558Z,7.63
2023-05-14T01:16:59.827Z,7.15
2023-05-14T01:21:04.928Z,7.28
2023-05-14T01:25:10.714Z,7.85
2023-05-14T01:29:20.706Z,7.15
2023-05-14T01:33:28.714Z,7.38
2023-05-14T01:37:33.887Z,6.70
2023-05-14T01:41:39.410Z,7.18
2023-05-14T01:45:43.542Z,7.05
2023-05-14T01:49:46.580Z,6.97
2023-05-14T01:53:49.756Z,7.00
2023-05-14T01:57:55.439Z,6.93
2023-05-14T02:01:58.720Z,6.95
2023-05-14T02:06:01.893Z,7.47
2023-05-14T02:10:05.147Z,6.95
2023-05-14T02:14:09.544Z,6.93
2023-05-14T02:18:12.902Z,7.47
2023-05-14T02:22:15.894Z,6.75
2023-05-14T02:26:19.053Z,7.43
2023-05-14T02:30:24.293Z,6.55
2023-05-14T02:34:27.488Z,6.78
2023-05-14T02:38:31.595Z,7.45
2023-05-14T02:42:34.632Z,7.53
2023-05-14T02:46:39.071Z,6.68
2023-05-14T02:50:42.308Z,7.47
2023-05-14T02:54:45.500Z,6.65
2023-05-14T02:58:48.816Z,6.88
2023-05-14T03:02:53.571Z,7.65
2023-05-14T03:06:57.309Z,6.45
2023-05-14T03:11:00.313Z,6.45
2023-05-14T03:15:03.337Z,7.30
2023-05-14T03:19:08.567Z,6.85
2023-05-14T03:23:11.679Z,6.60
2023-05-14T03:27:14.732Z,6.70
2023-05-14T03:31:17.833Z,6.30
2023-05-14T03:35:22.326Z,5.38
2023-05-14T03:39:25.348Z,5.47
2023-05-14T03:43:28.406Z,5.90
2023-05-14T03:47:31.540Z,5.07
2023-05-14T03:51:38.556Z,5.38
2023-05-14T03:55:42.509Z,5.93
2023-05-14T03:59:47.774Z,4.95
2023-05-14T04:03:51.112Z,4.93
2023-05-14T04:07:55.733Z,5.25
2023-05-14T04:11:58.838Z,5.43
2023-05-14T04:16:01.886Z,4.90
2023-05-14T04:20:06.697Z,4.93
2023-05-14T04:24:11.475Z,5.10
2023-05-14T04:28:14.979Z,4.57
2023-05-14T04:32:18.719Z,4.60
2023-05-14T04:36:21.697Z,4.57
2023-05-14T04:40:26.330Z,4.65
2023-05-14T04:44:29.591Z,4.00
2023-05-14T04:48:32.756Z,4.45
2023-05-14T04:52:35.941Z,3.95
2023-05-14T04:56:40.500Z,4.65
2023-05-14T05:00:43.739Z,4.55
2023-05-14T05:04:47.192Z,4.30
2023-05-14T05:08:50.268Z,4.20
2023-05-14T05:12:54.743Z,4.07
2023-05-14T05:16:57.758Z,4.05
2023-05-14T05:21:00.802Z,4.22
2023-05-14T05:25:06.179Z,3.72
2023-05-14T05:29:10.573Z,4.65
2023-05-14T05:33:13.869Z,3.92
2023-05-14T05:37:16.890Z,4.18
2023-05-14T05:41:19.924Z,3.83
2023-05-14T05:45:24.656Z,3.78
2023-05-14T05:49:27.690Z,4.82
2023-05-14T05:53:30.697Z,4.25
2023-05-14T05:57:33.926Z,4.00
2023-05-14T06:01:38.631Z,4.25
2023-05-14T06:05:41.860Z,3.90
2023-05-14T06:09:45.028Z,4.10
2023-05-14T06:13:48.033Z,3.97
2023-05-14T06:17:52.525Z,3.60
2023-05-14T06:21:56.018Z,4.10
2023-05-14T06:25:59.015Z,3.75
2023-05-14T06:30:02.036Z,3.60
2023-05-14T06:34:06.387Z,3.50
2023-05-14T06:38:09.405Z,3.90
2023-05-14T06:42:12.406Z,4.00
2023-05-14T06:46:15.479Z,3.88
2023-05-14T06:50:19.840Z,3.40
2023-05-14T06:54:22.821Z,2.80
2023-05-14T06:58:26.040Z,3.30
2023-05-14T07:02:29.320Z,2.90
2023-05-14T07:06:33.771Z,3.08
2023-05-14T07:10:36.881Z,3.03
2023-05-14T07:14:40.276Z,3.00
2023-05-14T07:18:43.866Z,3.47
2023-05-14T07:22:48.299Z,3.38
2023-05-14T07:26:51.363Z,3.00
2023-05-14T07:30:54.380Z,3.35
2023-05-14T07:34:57.387Z,3.20
2023-05-14T07:39:01.909Z,3.13
2023-05-14T07:43:04.969Z,3.50
2023-05-14T07:47:08.813Z,3.05
2023-05-14T07:51:11.958Z,2.90
2023-05-14T07:55:17.018Z,2.97
2023-05-14T07:59:20.298Z,2.53
2023-05-14T08:03:23.923Z,2.92
2023-05-14T08:07:28.477Z,2.70
2023-05-14T08:11:32.931Z,3.30
2023-05-14T08:15:36.093Z,3.03
2023-05-14T08:19:39.145Z,2.83
2023-05-14T08:23:42.813Z,2.85
2023-05-14T08:27:47.194Z,3.17
2023-05-14T08:31:51.183Z,3.13
2023-05-14T08:35:54.435Z,2.90
2023-05-14T08:39:57.471Z,3.03
2023-05-14T08:44:09.386Z,2.70
2023-05-14T08:48:17.558Z,3.20
2023-05-14T08:52:23.601Z,3.03
2023-05-14T08:56:28.024Z,3.25
2023-05-14T09:00:33.091Z,3.00
2023-05-14T09:04:38.102Z,3.47
2023-05-14T09:08:41.278Z,3.13
2023-05-14T09:12:44.300Z,3.47
2023-05-14T09:16:50.955Z,3.03
2023-05-14T09:20:54.298Z,2.90
2023-05-14T09:25:04.713Z,3.10
2023-05-14T09:29:07.697Z,2.70
2023-05-14T09:33:12.185Z,3.15
2023-05-14T09:37:15.199Z,3.00
2023-05-14T09:41:18.286Z,2.97
2023-05-14T09:45:21.364Z,3.08
2023-05-14T09:49:26.002Z,2.70
2023-05-14T09:53:30.975Z,3.10
2023-05-14T09:57:34.694Z,3.00
2023-05-14T10:01:39.282Z,3.13
2023-05-14T10:05:44.088Z,2.97
2023-05-14T10:09:47.957Z,3.75
2023-05-14T10:14:04.043Z,2.92
2023-05-14T10:18:12.052Z,3.13
2023-05-14T10:22:21.818Z,2.90
2023-05-14T10:26:25.439Z,3.30
2023-05-14T10:30:28.550Z,3.17
2023-05-14T10:34:38.499Z,3.10
2023-05-14T10:38:42.934Z,3.38
2023-05-14T10:42:47.874Z,3.38
2023-05-14T10:46:51.230Z,3.55
2023-05-14T10:50:55.429Z,3.45
2023-05-14T10:55:03.473Z,3.60
2023-05-14T10:59:07.932Z,3.33
2023-05-14T11:03:13.184Z,3.38
2023-05-14T11:07:16.551Z,3.33
2023-05-14T11:11:21.847Z,3.30
2023-05-14T11:15:26.226Z,3.60
2023-05-14T11:19:29.218Z,3.47
2023-05-14T11:23:32.596Z,3.60
2023-05-14T11:27:38.960Z,3.20
2023-05-14T11:31:42.187Z,3.70
2023-05-14T11:35:46.713Z,3.70
2023-05-14T11:39:50.982Z,3.60
2023-05-14T11:43:55.474Z,3.65
2023-05-14T11:47:58.512Z,3.75
2023-05-14T11:52:02.804Z,4.18
2023-05-14T11:56:08.216Z,3.40
2023-05-14T12:00:21.425Z,3.40
2023-05-14T12:04:25.753Z,3.65
2023-05-14T12:08:30.294Z,3.53
2023-05-14T12:12:37.782Z,3.50
2023-05-14T12:16:43.149Z,3.53
2023-05-14T12:20:49.209Z,3.28
2023-05-14T12:24:56.035Z,3.40
2023-05-14T12:29:01.755Z,3.72
2023-05-14T12:33:06.232Z,3.20
2023-05-14T12:37:09.303Z,3.38
2023-05-14T12:41:12.394Z,3.75
2023-05-14T12:45:15.490Z,3.35
2023-05-14T12:49:20.107Z,3.17
2023-05-14T12:53:23.149Z,3.45
2023-05-14T12:57:27.014Z,3.72
2023-05-14T13:01:30.101Z,3.70
2023-05-14T13:05:34.823Z,4.05
2023-05-14T13:09:38.246Z,3.72
2023-05-14T13:13:41.298Z,3.55
2023-05-14T13:17:44.336Z,4.28
2023-05-14T13:21:48.742Z,4.00
2023-05-14T13:25:51.818Z,3.90
2023-05-14T13:29:54.837Z,3.60
2023-05-14T13:33:58.099Z,4.20
2023-05-14T13:38:02.483Z,3.53
2023-05-14T13:42:06.204Z,3.60
2023-05-14T13:46:09.225Z,3.72
2023-05-14T13:50:12.551Z,3.42
2023-05-14T13:54:16.950Z,3.25
2023-05-14T13:58:19.981Z,3.28
2023-05-14T14:02:23.012Z,3.63
2023-05-14T14:06:27.480Z,3.92
2023-05-14T14:10:32.288Z,4.03
2023-05-14T14:14:35.334Z,3.60
2023-05-14T14:18:38.366Z,3.60
2023-05-14T14:22:41.991Z,3.58
2023-05-14T14:26:46.473Z,3.60
2023-05-14T14:30:51.517Z,3.17
2023-05-14T14:34:54.532Z,3.47
2023-05-14T14:38:57.996Z,3.42
2023-05-14T14:43:03.125Z,3.40
2023-05-14T14:47:06.801Z,3.20
2023-05-14T14:51:10.262Z,3.47
2023-05-14T14:55:13.262Z,2.92
2023-05-14T14:59:17.657Z,3.38
2023-05-14T15:03:21.299Z,3.15
2023-05-14T15:07:24.588Z,3.70
2023-05-14T15:11:28.918Z,3.22
2023-05-14T15:15:33.831Z,3.20
2023-05-14T15:19:36.849Z,3.28
2023-05-14T15:23:39.872Z,3.00
2023-05-14T15:27:42.882Z,2.97
2023-05-14T15:31:47.594Z,3.35
2023-05-14T15:35:51.301Z,3.25
2023-05-14T15:39:54.338Z,3.22
2023-05-14T15:43:58.672Z,3.42
2023-05-14T15:48:03.100Z,3.10
2023-05-14T15:52:06.563Z,3.00
2023-05-14T15:56:09.673Z,3.10
2023-05-14T16:00:14.446Z,3.15
2023-05-14T16:04:18.797Z,3.10
2023-05-14T16:08:21.917Z,2.92
2023-05-14T16:12:24.910Z,3.25
2023-05-14T16:16:27.995Z,3.22
2023-05-14T16:20:32.401Z,3.22
2023-05-14T16:24:35.445Z,3.80
2023-05-14T16:28:41.235Z,3.28
2023-05-14T16:32:46.667Z,3.28
2023-05-14T16:36:51.707Z,3.20
2023-05-14T16:40:54.692Z,3.05
2023-05-14T16:44:57.687Z,3.17
2023-05-14T16:49:02.268Z,3.13
2023-05-14T16:53:06.715Z,2.92
2023-05-14T16:57:09.807Z,3.17
2023-05-14T17:01:12.901Z,2.78
2023-05-14T17:05:16.151Z,3.10
2023-05-14T17:09:20.943Z,3.03
2023-05-14T17:13:24.024Z,2.80
2023-05-14T17:17:27.108Z,2.83
2023-05-14T17:21:30.109Z,3.00
2023-05-14T17:25:34.620Z,3.15
2023-05-14T17:29:37.638Z,2.60
2023-05-14T17:33:40.864Z,2.70
2023-05-14T17:37:44.105Z,2.92
2023-05-14T17:41:48.483Z,2.80
2023-05-14T17:45:54.517Z,3.13
2023-05-14T17:49:57.964Z,3.58
2023-05-14T17:54:01.089Z,2.88
2023-05-14T17:58:05.478Z,3.05
2023-05-14T18:02:08.561Z,3.35
2023-05-14T18:06:11.721Z,3.17
2023-05-14T18:10:14.916Z,2.92
2023-05-14T18:14:19.329Z,2.72
2023-05-14T18:18:23.930Z,2.63
2023-05-14T18:22:26.910Z,2.67
2023-05-14T18:26:31.262Z,2.95
2023-05-14T18:30:37.423Z,2.60
2023-05-14T18:34:40.469Z,2.60
2023-05-14T18:38:43.601Z,2.58
2023-05-14T18:42:46.782Z,2.33
2023-05-14T18:46:51.526Z,2.50
2023-05-14T18:50:54.514Z,2.55
2023-05-14T18:54:57.825Z,2.63
2023-05-14T18:59:00.953Z,2.50
2023-05-14T19:03:05.612Z,2.45
2023-05-14T19:07:09.238Z,2.50
2023-05-14T19:11:12.441Z,2.30
2023-05-14T19:15:15.622Z,2.15
2023-05-14T19:19:20.055Z,2.38
2023-05-14T19:23:23.204Z,2.50
2023-05-14T19:27:26.732Z,2.67
2023-05-14T19:31:29.789Z,2.88
2023-05-14T19:35:34.222Z,2.70
2023-05-14T19:39:37.732Z,3.00
2023-05-14T19:43:40.926Z,2.83
2023-05-14T19:47:44.109Z,2.50
2023-05-14T19:51:48.537Z,2.58
2023-05-14T19:55:51.576Z,2.90
2023-05-14T19:59:54.580Z,3.08
2023-05-14T20:03:57.759Z,2.80
2023-05-14T20:08:03.946Z,2.88
2023-05-14T20:12:07.850Z,2.95
2023-05-14T20:16:10.916Z,2.58
2023-05-14T20:20:14.036Z,2.70
2023-05-14T20:24:18.483Z,2.45
2023-05-14T20:28:21.751Z,2.67
2023-05-14T20:32:25.622Z,2.60
2023-05-14T20:36:29.810Z,2.55
2023-05-14T20:40:34.776Z,2.85
2023-05-14T20:44:38.021Z,3.08
2023-05-14T20:48:41.390Z,3.10
2023-05-14T20:52:44.608Z,3.05
2023-05-14T20:56:49.060Z,3.10
2023-05-14T21:00:52.194Z,2.80
2023-05-14T21:04:55.608Z,2.90
2023-05-14T21:08:58.911Z,3.10
2023-05-14T21:13:03.766Z,2.95
2023-05-14T21:17:07.071Z,2.75
2023-05-14T21:21:10.034Z,3.20
2023-05-14T21:25:13.074Z,3.03
2023-05-14T21:29:17.469Z,3.13
2023-05-14T21:33:20.455Z,2.90
2023-05-14T21:37:23.557Z,3.17
2023-05-14T21:41:26.665Z,3.08
2023-05-14T21:45:31.040Z,3.35
2023-05-14T21:49:34.061Z,3.17
2023-05-14T21:53:37.078Z,3.22
2023-05-14T21:57:40.079Z,3.50
2023-05-14T22:05:50.545Z,2.92
2023-05-14T22:09:53.537Z,2.70
2023-05-14T22:13:56.508Z,2.35
2023-05-14T22:18:01.008Z,2.38
2023-05-14T22:22:04.132Z,2.30
2023-05-14T22:26:07.365Z,2.10
2023-05-14T22:30:11.175Z,2.08
2023-05-14T22:34:15.560Z,2.20
2023-05-14T22:38:19.962Z,2.20
2023-05-14T22:42:22.914Z,2.28
2023-05-14T22:46:25.986Z,2.10
2023-05-14T22:50:30.511Z,2.15
2023-05-14T22:54:33.502Z,2.30
2023-05-14T22:58:36.548Z,2.17
2023-05-14T23:02:39.587Z,1.75
2023-05-14T23:06:44.492Z,2.20
2023-05-14T23:10:47.527Z,1.92
2023-05-14T23:14:50.510Z,1.98
2023-05-14T23:18:53.707Z,2.08
2023-05-14T23:22:58.196Z,2.08
2023-05-14T23:27:01.556Z,1.83
2023-05-14T23:31:04.615Z,1.45
2023-05-14T23:35:08.052Z,1.77
2023-05-14T23:39:12.724Z,1.83
2023-05-14T23:43:17.264Z,1.90
2023-05-14T23:47:20.523Z,1.80
2023-05-14T23:51:23.773Z,2.00
2023-05-14T23:55:28.210Z,1.88
2023-05-14T23:59:31.296Z,2.00
